sensor_id;sensor_type;location;lat;lon;timestamp;P1;durP1;ratioP1;P2;durP2;ratioP2
68858;SDS011;55864;49.238;8.092;2022-09-27T00:00:37;3.58;;;1.25;;
68858;SDS011;55864;49.238;8.092;2022-09-27T00:02:38;4.27;;;1.53;;
68858;SDS011;55864;49.238;8.092;2022-09-27T00:04:39;3.43;;;1.20;;
68858;SDS011;55864;49.238;8.092;2022-09-27T00:06:39;5.00;;;1.60;;
68858;SDS011;55864;49.238;8.092;2022-09-27T00:08:41;4.10;;;1.20;;
68858;SDS011;55864;49.238;8.092;2022-09-27T00:10:43;2.30;;;1.00;;
68858;SDS011;55864;49.238;8.092;2022-09-27T00:12:44;2.70;;;1.10;;
68858;SDS011;55864;49.238;8.092;2022-09-27T00:14:45;2.60;;;0.95;;
68858;SDS011;55864;49.238;8.092;2022-09-27T00:16:45;4.35;;;1.00;;
68858;SDS011;55864;49.238;8.092;2022-09-27T00:18:46;3.42;;;0.98;;
68858;SDS011;55864;49.238;8.092;2022-09-27T00:20:46;4.83;;;1.03;;
68858;SDS011;55864;49.238;8.092;2022-09-27T00:22:47;3.20;;;1.03;;
68858;SDS011;55864;49.238;8.092;2022-09-27T00:24:48;2.58;;;1.10;;
68858;SDS011;55864;49.238;8.092;2022-09-27T00:26:51;4.03;;;1.00;;
68858;SDS011;55864;49.238;8.092;2022-09-27T00:28:51;3.47;;;1.02;;
68858;SDS011;55864;49.238;8.092;2022-09-27T00:30:52;1.93;;;0.93;;
68858;SDS011;55864;49.238;8.092;2022-09-27T00:32:53;4.22;;;1.00;;
68858;SDS011;55864;49.238;8.092;2022-09-27T00:34:53;1.17;;;0.77;;
68858;SDS011;55864;49.238;8.092;2022-09-27T00:36:54;1.73;;;0.93;;
68858;SDS011;55864;49.238;8.092;2022-09-27T00:38:55;3.10;;;0.90;;
68858;SDS011;55864;49.238;8.092;2022-09-27T00:40:56;1.73;;;0.80;;
68858;SDS011;55864;49.238;8.092;2022-09-27T00:42:58;1.60;;;0.90;;
68858;SDS011;55864;49.238;8.092;2022-09-27T00:44:59;2.50;;;0.80;;
68858;SDS011;55864;49.238;8.092;2022-09-27T00:47:07;1.42;;;0.70;;
68858;SDS011;55864;49.238;8.092;2022-09-27T00:49:13;1.77;;;0.80;;
68858;SDS011;55864;49.238;8.092;2022-09-27T00:51:18;1.40;;;0.77;;
68858;SDS011;55864;49.238;8.092;2022-09-27T00:53:20;3.58;;;0.90;;
68858;SDS011;55864;49.238;8.092;2022-09-27T00:55:24;4.35;;;1.13;;
68858;SDS011;55864;49.238;8.092;2022-09-27T00:57:29;3.03;;;1.00;;
68858;SDS011;55864;49.238;8.092;2022-09-27T00:59:32;2.83;;;0.90;;
68858;SDS011;55864;49.238;8.092;2022-09-27T01:01:34;3.60;;;0.90;;
68858;SDS011;55864;49.238;8.092;2022-09-27T01:03:36;3.13;;;0.98;;
68858;SDS011;55864;49.238;8.092;2022-09-27T01:05:43;3.88;;;1.00;;
68858;SDS011;55864;49.238;8.092;2022-09-27T01:07:44;4.38;;;1.20;;
68858;SDS011;55864;49.238;8.092;2022-09-27T01:09:44;3.55;;;1.00;;
68858;SDS011;55864;49.238;8.092;2022-09-27T01:11:47;3.70;;;1.05;;
68858;SDS011;55864;49.238;8.092;2022-09-27T01:13:58;4.50;;;1.10;;
68858;SDS011;55864;49.238;8.092;2022-09-27T01:16:11;4.90;;;1.20;;
68858;SDS011;55864;49.238;8.092;2022-09-27T01:18:26;5.93;;;1.33;;
68858;SDS011;55864;49.238;8.092;2022-09-27T01:20:48;4.45;;;1.20;;
68858;SDS011;55864;49.238;8.092;2022-09-27T01:23:13;5.22;;;1.42;;
68858;SDS011;55864;49.238;8.092;2022-09-27T01:25:31;3.75;;;1.25;;
68858;SDS011;55864;49.238;8.092;2022-09-27T01:28:04;4.90;;;1.27;;
68858;SDS011;55864;49.238;8.092;2022-09-27T01:30:19;6.55;;;1.60;;
68858;SDS011;55864;49.238;8.092;2022-09-27T01:32:25;5.38;;;1.30;;
68858;SDS011;55864;49.238;8.092;2022-09-27T01:34:33;3.42;;;1.20;;
68858;SDS011;55864;49.238;8.092;2022-09-27T01:36:41;5.93;;;1.30;;
68858;SDS011;55864;49.238;8.092;2022-09-27T01:38:53;5.35;;;1.50;;
68858;SDS011;55864;49.238;8.092;2022-09-27T01:41:21;5.80;;;1.50;;
68858;SDS011;55864;49.238;8.092;2022-09-27T01:43:52;4.03;;;1.50;;
68858;SDS011;55864;49.238;8.092;2022-09-27T01:46:03;4.63;;;1.42;;
68858;SDS011;55864;49.238;8.092;2022-09-27T01:48:30;5.30;;;1.45;;
68858;SDS011;55864;49.238;8.092;2022-09-27T01:50:41;5.28;;;1.40;;
68858;SDS011;55864;49.238;8.092;2022-09-27T01:52:46;4.70;;;1.40;;
68858;SDS011;55864;49.238;8.092;2022-09-27T01:54:51;4.60;;;1.35;;
68858;SDS011;55864;49.238;8.092;2022-09-27T01:56:56;4.97;;;1.48;;
68858;SDS011;55864;49.238;8.092;2022-09-27T01:59:04;5.30;;;1.40;;
68858;SDS011;55864;49.238;8.092;2022-09-27T02:01:14;4.80;;;1.67;;
68858;SDS011;55864;49.238;8.092;2022-09-27T02:03:19;6.72;;;1.70;;
68858;SDS011;55864;49.238;8.092;2022-09-27T02:05:44;7.15;;;1.70;;
68858;SDS011;55864;49.238;8.092;2022-09-27T02:08:01;6.00;;;1.40;;
68858;SDS011;55864;49.238;8.092;2022-09-27T02:10:09;5.83;;;1.40;;
68858;SDS011;55864;49.238;8.092;2022-09-27T02:12:37;5.03;;;1.93;;
68858;SDS011;55864;49.238;8.092;2022-09-27T02:14:46;4.30;;;1.70;;
68858;SDS011;55864;49.238;8.092;2022-09-27T02:16:56;7.05;;;1.70;;
68858;SDS011;55864;49.238;8.092;2022-09-27T02:19:08;4.77;;;1.43;;
68858;SDS011;55864;49.238;8.092;2022-09-27T02:21:18;5.13;;;1.80;;
68858;SDS011;55864;49.238;8.092;2022-09-27T02:23:20;4.40;;;1.43;;
68858;SDS011;55864;49.238;8.092;2022-09-27T02:25:33;5.83;;;1.50;;
68858;SDS011;55864;49.238;8.092;2022-09-27T02:27:43;4.60;;;1.60;;
68858;SDS011;55864;49.238;8.092;2022-09-27T02:29:53;5.80;;;1.90;;
68858;SDS011;55864;49.238;8.092;2022-09-27T02:32:02;5.20;;;1.60;;
68858;SDS011;55864;49.238;8.092;2022-09-27T02:34:03;5.88;;;1.50;;
68858;SDS011;55864;49.238;8.092;2022-09-27T02:36:09;4.68;;;1.80;;
68858;SDS011;55864;49.238;8.092;2022-09-27T02:38:10;5.53;;;1.70;;
68858;SDS011;55864;49.238;8.092;2022-09-27T02:40:11;5.93;;;1.60;;
68858;SDS011;55864;49.238;8.092;2022-09-27T02:42:12;6.43;;;1.90;;
68858;SDS011;55864;49.238;8.092;2022-09-27T02:44:14;5.80;;;1.50;;
68858;SDS011;55864;49.238;8.092;2022-09-27T02:46:22;6.18;;;1.63;;
68858;SDS011;55864;49.238;8.092;2022-09-27T02:48:39;5.57;;;1.40;;
68858;SDS011;55864;49.238;8.092;2022-09-27T02:50:55;4.63;;;1.40;;
68858;SDS011;55864;49.238;8.092;2022-09-27T02:53:20;6.47;;;1.58;;
68858;SDS011;55864;49.238;8.092;2022-09-27T02:55:39;4.10;;;1.30;;
68858;SDS011;55864;49.238;8.092;2022-09-27T02:58:15;4.30;;;1.40;;
68858;SDS011;55864;49.238;8.092;2022-09-27T03:00:51;5.05;;;1.40;;
68858;SDS011;55864;49.238;8.092;2022-09-27T03:03:19;3.00;;;1.10;;
68858;SDS011;55864;49.238;8.092;2022-09-27T03:05:28;5.10;;;1.20;;
68858;SDS011;55864;49.238;8.092;2022-09-27T03:07:35;2.97;;;1.00;;
68858;SDS011;55864;49.238;8.092;2022-09-27T03:09:40;5.45;;;1.27;;
68858;SDS011;55864;49.238;8.092;2022-09-27T03:11:43;4.63;;;1.23;;
68858;SDS011;55864;49.238;8.092;2022-09-27T03:13:43;2.17;;;1.00;;
68858;SDS011;55864;49.238;8.092;2022-09-27T03:15:44;4.93;;;1.10;;
68858;SDS011;55864;49.238;8.092;2022-09-27T03:18:03;4.10;;;1.20;;
68858;SDS011;55864;49.238;8.092;2022-09-27T03:20:44;3.05;;;1.08;;
68858;SDS011;55864;49.238;8.092;2022-09-27T03:22:46;5.25;;;1.20;;
68858;SDS011;55864;49.238;8.092;2022-09-27T03:24:47;4.32;;;1.30;;
68858;SDS011;55864;49.238;8.092;2022-09-27T03:26:47;2.70;;;1.00;;
68858;SDS011;55864;49.238;8.092;2022-09-27T03:28:48;4.65;;;1.30;;
68858;SDS011;55864;49.238;8.092;2022-09-27T03:30:48;3.58;;;1.17;;
68858;SDS011;55864;49.238;8.092;2022-09-27T03:33:12;4.72;;;1.13;;
68858;SDS011;55864;49.238;8.092;2022-09-27T03:35:12;4.57;;;1.35;;
68858;SDS011;55864;49.238;8.092;2022-09-27T03:37:14;5.57;;;1.10;;
68858;SDS011;55864;49.238;8.092;2022-09-27T03:39:15;3.00;;;1.10;;
68858;SDS011;55864;49.238;8.092;2022-09-27T03:41:16;4.23;;;1.20;;
68858;SDS011;55864;49.238;8.092;2022-09-27T03:43:17;3.75;;;1.20;;
68858;SDS011;55864;49.238;8.092;2022-09-27T03:45:19;4.47;;;1.23;;
68858;SDS011;55864;49.238;8.092;2022-09-27T03:47:20;4.20;;;1.30;;
68858;SDS011;55864;49.238;8.092;2022-09-27T03:49:21;3.20;;;1.13;;
68858;SDS011;55864;49.238;8.092;2022-09-27T03:51:21;4.50;;;1.23;;
68858;SDS011;55864;49.238;8.092;2022-09-27T03:53:24;3.60;;;1.30;;
68858;SDS011;55864;49.238;8.092;2022-09-27T03:55:24;4.80;;;1.30;;
68858;SDS011;55864;49.238;8.092;2022-09-27T03:57:25;3.00;;;1.07;;
68858;SDS011;55864;49.238;8.092;2022-09-27T03:59:26;5.07;;;1.50;;
68858;SDS011;55864;49.238;8.092;2022-09-27T04:01:45;3.37;;;1.30;;
68858;SDS011;55864;49.238;8.092;2022-09-27T04:04:06;5.10;;;1.30;;
68858;SDS011;55864;49.238;8.092;2022-09-27T04:06:07;4.57;;;1.30;;
68858;SDS011;55864;49.238;8.092;2022-09-27T04:08:11;3.45;;;1.30;;
68858;SDS011;55864;49.238;8.092;2022-09-27T04:10:15;3.20;;;1.20;;
68858;SDS011;55864;49.238;8.092;2022-09-27T04:12:16;3.75;;;1.10;;
68858;SDS011;55864;49.238;8.092;2022-09-27T04:14:17;3.35;;;1.00;;
68858;SDS011;55864;49.238;8.092;2022-09-27T04:16:38;3.10;;;0.93;;
68858;SDS011;55864;49.238;8.092;2022-09-27T04:19:03;2.55;;;1.00;;
68858;SDS011;55864;49.238;8.092;2022-09-27T04:21:18;2.17;;;0.93;;
68858;SDS011;55864;49.238;8.092;2022-09-27T04:23:24;2.90;;;1.00;;
68858;SDS011;55864;49.238;8.092;2022-09-27T04:25:27;3.00;;;1.20;;
68858;SDS011;55864;49.238;8.092;2022-09-27T04:27:30;3.30;;;0.95;;
68858;SDS011;55864;49.238;8.092;2022-09-27T04:29:31;5.07;;;1.10;;
68858;SDS011;55864;49.238;8.092;2022-09-27T04:31:37;5.00;;;1.10;;
68858;SDS011;55864;49.238;8.092;2022-09-27T04:33:50;3.47;;;1.10;;
68858;SDS011;55864;49.238;8.092;2022-09-27T04:35:53;2.05;;;0.85;;
68858;SDS011;55864;49.238;8.092;2022-09-27T04:37:54;4.10;;;1.20;;
68858;SDS011;55864;49.238;8.092;2022-09-27T04:39:55;4.63;;;1.20;;
68858;SDS011;55864;49.238;8.092;2022-09-27T04:41:57;2.75;;;0.90;;
68858;SDS011;55864;49.238;8.092;2022-09-27T04:43:57;2.13;;;1.00;;
68858;SDS011;55864;49.238;8.092;2022-09-27T04:45:58;3.00;;;0.93;;
68858;SDS011;55864;49.238;8.092;2022-09-27T04:47:59;2.90;;;1.10;;
68858;SDS011;55864;49.238;8.092;2022-09-27T04:50:00;3.47;;;1.30;;
68858;SDS011;55864;49.238;8.092;2022-09-27T04:52:01;7.32;;;2.70;;
68858;SDS011;55864;49.238;8.092;2022-09-27T04:54:02;26.33;;;8.52;;
68858;SDS011;55864;49.238;8.092;2022-09-27T04:56:06;15.63;;;5.10;;
68858;SDS011;55864;49.238;8.092;2022-09-27T04:58:08;23.13;;;7.40;;
68858;SDS011;55864;49.238;8.092;2022-09-27T05:00:09;79.13;;;25.23;;
68858;SDS011;55864;49.238;8.092;2022-09-27T05:02:12;28.45;;;9.43;;
68858;SDS011;55864;49.238;8.092;2022-09-27T05:04:31;38.40;;;13.67;;
68858;SDS011;55864;49.238;8.092;2022-09-27T05:06:32;30.43;;;11.70;;
68858;SDS011;55864;49.238;8.092;2022-09-27T05:08:39;17.93;;;6.53;;
68858;SDS011;55864;49.238;8.092;2022-09-27T05:10:52;22.42;;;9.18;;
68858;SDS011;55864;49.238;8.092;2022-09-27T05:12:53;11.87;;;5.23;;
68858;SDS011;55864;49.238;8.092;2022-09-27T05:14:55;8.77;;;3.43;;
68858;SDS011;55864;49.238;8.092;2022-09-27T05:17:08;12.23;;;5.35;;
68858;SDS011;55864;49.238;8.092;2022-09-27T05:19:35;7.97;;;3.15;;
68858;SDS011;55864;49.238;8.092;2022-09-27T05:21:44;13.67;;;4.70;;
68858;SDS011;55864;49.238;8.092;2022-09-27T05:23:46;9.83;;;3.93;;
68858;SDS011;55864;49.238;8.092;2022-09-27T05:25:47;9.50;;;3.63;;
68858;SDS011;55864;49.238;8.092;2022-09-27T05:27:48;8.43;;;3.53;;
68858;SDS011;55864;49.238;8.092;2022-09-27T05:29:49;39.25;;;14.70;;
68858;SDS011;55864;49.238;8.092;2022-09-27T05:31:56;27.97;;;10.50;;
68858;SDS011;55864;49.238;8.092;2022-09-27T05:33:57;36.40;;;12.07;;
68858;SDS011;55864;49.238;8.092;2022-09-27T05:36:07;55.07;;;16.63;;
68858;SDS011;55864;49.238;8.092;2022-09-27T05:38:08;18.00;;;5.93;;
68858;SDS011;55864;49.238;8.092;2022-09-27T05:40:09;23.17;;;7.30;;
68858;SDS011;55864;49.238;8.092;2022-09-27T05:42:10;19.97;;;7.50;;
68858;SDS011;55864;49.238;8.092;2022-09-27T05:44:11;16.93;;;6.43;;
68858;SDS011;55864;49.238;8.092;2022-09-27T05:46:17;21.00;;;8.70;;
68858;SDS011;55864;49.238;8.092;2022-09-27T05:48:22;5.80;;;2.10;;
68858;SDS011;55864;49.238;8.092;2022-09-27T05:50:30;5.40;;;1.90;;
68858;SDS011;55864;49.238;8.092;2022-09-27T05:52:31;5.27;;;1.80;;
68858;SDS011;55864;49.238;8.092;2022-09-27T05:54:31;5.60;;;1.60;;
68858;SDS011;55864;49.238;8.092;2022-09-27T05:56:33;4.37;;;1.30;;
68858;SDS011;55864;49.238;8.092;2022-09-27T05:58:56;6.82;;;1.42;;
68858;SDS011;55864;49.238;8.092;2022-09-27T06:00:58;5.13;;;1.50;;
68858;SDS011;55864;49.238;8.092;2022-09-27T06:03:27;3.03;;;1.20;;
68858;SDS011;55864;49.238;8.092;2022-09-27T06:06:00;3.80;;;1.20;;
68858;SDS011;55864;49.238;8.092;2022-09-27T06:08:14;4.47;;;1.30;;
68858;SDS011;55864;49.238;8.092;2022-09-27T06:10:19;4.23;;;1.37;;
68858;SDS011;55864;49.238;8.092;2022-09-27T06:12:20;2.90;;;1.20;;
68858;SDS011;55864;49.238;8.092;2022-09-27T06:14:21;3.27;;;1.20;;
68858;SDS011;55864;49.238;8.092;2022-09-27T06:16:33;3.27;;;1.17;;
68858;SDS011;55864;49.238;8.092;2022-09-27T06:18:35;5.43;;;1.33;;
68858;SDS011;55864;49.238;8.092;2022-09-27T06:20:37;4.00;;;1.10;;
68858;SDS011;55864;49.238;8.092;2022-09-27T06:22:39;3.60;;;1.20;;
68858;SDS011;55864;49.238;8.092;2022-09-27T06:24:39;4.43;;;1.43;;
68858;SDS011;55864;49.238;8.092;2022-09-27T06:26:50;3.37;;;1.10;;
68858;SDS011;55864;49.238;8.092;2022-09-27T06:29:09;3.07;;;1.30;;
68858;SDS011;55864;49.238;8.092;2022-09-27T06:33:20;4.03;;;1.03;;
68858;SDS011;55864;49.238;8.092;2022-09-27T06:35:27;3.47;;;1.20;;
68858;SDS011;55864;49.238;8.092;2022-09-27T06:39:30;3.33;;;1.00;;
68858;SDS011;55864;49.238;8.092;2022-09-27T06:41:44;3.63;;;1.20;;
68858;SDS011;55864;49.238;8.092;2022-09-27T06:43:57;2.33;;;1.07;;
68858;SDS011;55864;49.238;8.092;2022-09-27T06:46:04;3.57;;;1.20;;
68858;SDS011;55864;49.238;8.092;2022-09-27T06:48:16;2.20;;;1.00;;
68858;SDS011;55864;49.238;8.092;2022-09-27T06:50:46;1.43;;;0.90;;
68858;SDS011;55864;49.238;8.092;2022-09-27T06:52:46;2.90;;;1.00;;
68858;SDS011;55864;49.238;8.092;2022-09-27T06:54:47;2.27;;;1.00;;
68858;SDS011;55864;49.238;8.092;2022-09-27T06:56:48;3.30;;;1.10;;
68858;SDS011;55864;49.238;8.092;2022-09-27T06:58:49;5.13;;;1.38;;
68858;SDS011;55864;49.238;8.092;2022-09-27T07:01:08;2.42;;;1.05;;
68858;SDS011;55864;49.238;8.092;2022-09-27T07:03:27;2.58;;;1.00;;
68858;SDS011;55864;49.238;8.092;2022-09-27T07:06:05;4.88;;;1.25;;
68858;SDS011;55864;49.238;8.092;2022-09-27T07:08:19;2.08;;;1.02;;
68858;SDS011;55864;49.238;8.092;2022-09-27T07:10:19;3.35;;;1.10;;
68858;SDS011;55864;49.238;8.092;2022-09-27T07:12:20;2.67;;;1.10;;
68858;SDS011;55864;49.238;8.092;2022-09-27T07:14:21;4.70;;;1.10;;
68858;SDS011;55864;49.238;8.092;2022-09-27T07:16:22;3.73;;;1.10;;
68858;SDS011;55864;49.238;8.092;2022-09-27T07:18:23;5.38;;;1.10;;
68858;SDS011;55864;49.238;8.092;2022-09-27T07:20:24;3.03;;;1.10;;
68858;SDS011;55864;49.238;8.092;2022-09-27T07:22:26;2.22;;;1.13;;
68858;SDS011;55864;49.238;8.092;2022-09-27T07:24:33;2.83;;;1.20;;
68858;SDS011;55864;49.238;8.092;2022-09-27T07:26:34;4.30;;;1.50;;
68858;SDS011;55864;49.238;8.092;2022-09-27T07:28:36;3.40;;;1.20;;
68858;SDS011;55864;49.238;8.092;2022-09-27T07:30:37;3.20;;;1.20;;
68858;SDS011;55864;49.238;8.092;2022-09-27T07:32:37;5.97;;;1.30;;
68858;SDS011;55864;49.238;8.092;2022-09-27T07:34:40;3.70;;;1.20;;
68858;SDS011;55864;49.238;8.092;2022-09-27T07:36:41;3.57;;;1.20;;
68858;SDS011;55864;49.238;8.092;2022-09-27T07:38:43;3.25;;;1.20;;
68858;SDS011;55864;49.238;8.092;2022-09-27T07:40:44;2.70;;;1.10;;
68858;SDS011;55864;49.238;8.092;2022-09-27T07:42:44;4.25;;;1.40;;
68858;SDS011;55864;49.238;8.092;2022-09-27T07:44:45;3.63;;;1.23;;
68858;SDS011;55864;49.238;8.092;2022-09-27T07:47:01;3.83;;;1.53;;
68858;SDS011;55864;49.238;8.092;2022-09-27T07:49:25;3.90;;;1.42;;
68858;SDS011;55864;49.238;8.092;2022-09-27T07:51:49;3.77;;;1.33;;
68858;SDS011;55864;49.238;8.092;2022-09-27T07:54:10;4.90;;;1.30;;
68858;SDS011;55864;49.238;8.092;2022-09-27T07:56:37;3.07;;;1.30;;
68858;SDS011;55864;49.238;8.092;2022-09-27T07:58:39;4.50;;;1.57;;
68858;SDS011;55864;49.238;8.092;2022-09-27T08:00:41;3.47;;;1.33;;
68858;SDS011;55864;49.238;8.092;2022-09-27T08:02:44;4.53;;;1.80;;
68858;SDS011;55864;49.238;8.092;2022-09-27T08:04:45;3.65;;;1.40;;
68858;SDS011;55864;49.238;8.092;2022-09-27T08:06:45;3.97;;;1.50;;
68858;SDS011;55864;49.238;8.092;2022-09-27T08:08:46;4.97;;;1.50;;
68858;SDS011;55864;49.238;8.092;2022-09-27T08:10:48;6.03;;;1.70;;
68858;SDS011;55864;49.238;8.092;2022-09-27T08:12:50;4.68;;;1.90;;
68858;SDS011;55864;49.238;8.092;2022-09-27T08:14:51;7.80;;;2.05;;
68858;SDS011;55864;49.238;8.092;2022-09-27T08:16:52;4.63;;;1.50;;
68858;SDS011;55864;49.238;8.092;2022-09-27T08:19:01;6.47;;;1.80;;
68858;SDS011;55864;49.238;8.092;2022-09-27T08:21:15;6.55;;;1.98;;
68858;SDS011;55864;49.238;8.092;2022-09-27T08:23:23;5.85;;;2.00;;
68858;SDS011;55864;49.238;8.092;2022-09-27T08:27:58;8.15;;;1.88;;
68858;SDS011;55864;49.238;8.092;2022-09-27T08:30:14;7.32;;;1.73;;
68858;SDS011;55864;49.238;8.092;2022-09-27T08:32:15;5.00;;;1.80;;
68858;SDS011;55864;49.238;8.092;2022-09-27T08:34:17;6.70;;;1.47;;
68858;SDS011;55864;49.238;8.092;2022-09-27T08:36:18;6.65;;;1.80;;
68858;SDS011;55864;49.238;8.092;2022-09-27T08:38:19;6.22;;;1.90;;
68858;SDS011;55864;49.238;8.092;2022-09-27T08:40:20;6.30;;;1.98;;
68858;SDS011;55864;49.238;8.092;2022-09-27T08:42:25;7.07;;;1.92;;
68858;SDS011;55864;49.238;8.092;2022-09-27T08:44:35;5.65;;;2.20;;
68858;SDS011;55864;49.238;8.092;2022-09-27T08:46:50;5.38;;;1.75;;
68858;SDS011;55864;49.238;8.092;2022-09-27T08:48:58;6.32;;;1.88;;
68858;SDS011;55864;49.238;8.092;2022-09-27T08:51:04;6.72;;;1.70;;
68858;SDS011;55864;49.238;8.092;2022-09-27T08:53:13;7.45;;;2.95;;
68858;SDS011;55864;49.238;8.092;2022-09-27T08:55:21;4.57;;;1.80;;
68858;SDS011;55864;49.238;8.092;2022-09-27T08:57:26;7.28;;;1.92;;
68858;SDS011;55864;49.238;8.092;2022-09-27T08:59:28;4.88;;;1.80;;
68858;SDS011;55864;49.238;8.092;2022-09-27T09:01:37;6.55;;;1.85;;
68858;SDS011;55864;49.238;8.092;2022-09-27T09:03:56;5.65;;;1.98;;
68858;SDS011;55864;49.238;8.092;2022-09-27T09:06:06;4.93;;;2.05;;
68858;SDS011;55864;49.238;8.092;2022-09-27T09:08:18;6.25;;;1.98;;
68858;SDS011;55864;49.238;8.092;2022-09-27T09:10:33;6.32;;;2.00;;
68858;SDS011;55864;49.238;8.092;2022-09-27T09:12:46;5.57;;;2.53;;
68858;SDS011;55864;49.238;8.092;2022-09-27T09:15:16;7.40;;;2.30;;
68858;SDS011;55864;49.238;8.092;2022-09-27T09:17:39;8.18;;;2.00;;
68858;SDS011;55864;49.238;8.092;2022-09-27T09:20:15;5.57;;;1.65;;
68858;SDS011;55864;49.238;8.092;2022-09-27T09:22:33;4.25;;;1.35;;
68858;SDS011;55864;49.238;8.092;2022-09-27T09:24:48;5.88;;;1.70;;
68858;SDS011;55864;49.238;8.092;2022-09-27T09:27:01;5.93;;;1.58;;
68858;SDS011;55864;49.238;8.092;2022-09-27T09:29:16;4.78;;;1.30;;
68858;SDS011;55864;49.238;8.092;2022-09-27T09:31:32;4.17;;;1.30;;
68858;SDS011;55864;49.238;8.092;2022-09-27T09:33:42;7.10;;;3.00;;
68858;SDS011;55864;49.238;8.092;2022-09-27T09:35:47;8.30;;;2.22;;
68858;SDS011;55864;49.238;8.092;2022-09-27T09:37:52;5.17;;;1.70;;
68858;SDS011;55864;49.238;8.092;2022-09-27T09:39:58;4.22;;;1.20;;
68858;SDS011;55864;49.238;8.092;2022-09-27T09:42:06;4.70;;;1.35;;
68858;SDS011;55864;49.238;8.092;2022-09-27T09:44:13;4.60;;;1.70;;
68858;SDS011;55864;49.238;8.092;2022-09-27T09:46:19;5.28;;;1.77;;
68858;SDS011;55864;49.238;8.092;2022-09-27T09:48:26;4.13;;;1.60;;
68858;SDS011;55864;49.238;8.092;2022-09-27T09:50:34;6.70;;;1.90;;
68858;SDS011;55864;49.238;8.092;2022-09-27T09:52:42;4.75;;;1.85;;
68858;SDS011;55864;49.238;8.092;2022-09-27T09:54:47;4.88;;;1.80;;
68858;SDS011;55864;49.238;8.092;2022-09-27T09:56:55;8.73;;;3.40;;
68858;SDS011;55864;49.238;8.092;2022-09-27T09:59:03;12.13;;;5.20;;
68858;SDS011;55864;49.238;8.092;2022-09-27T10:01:16;17.43;;;7.73;;
68858;SDS011;55864;49.238;8.092;2022-09-27T10:03:19;22.53;;;10.23;;
68858;SDS011;55864;49.238;8.092;2022-09-27T10:05:23;22.17;;;10.60;;
68858;SDS011;55864;49.238;8.092;2022-09-27T10:07:38;17.30;;;7.35;;
68858;SDS011;55864;49.238;8.092;2022-09-27T10:09:39;6.60;;;2.40;;
68858;SDS011;55864;49.238;8.092;2022-09-27T10:12:03;25.63;;;9.15;;
68858;SDS011;55864;49.238;8.092;2022-09-27T10:14:04;39.33;;;13.03;;
68858;SDS011;55864;49.238;8.092;2022-09-27T10:16:10;39.30;;;13.67;;
68858;SDS011;55864;49.238;8.092;2022-09-27T10:18:16;35.90;;;14.43;;
68858;SDS011;55864;49.238;8.092;2022-09-27T10:20:22;29.98;;;13.02;;
68858;SDS011;55864;49.238;8.092;2022-09-27T10:22:28;32.03;;;13.40;;
68858;SDS011;55864;49.238;8.092;2022-09-27T10:24:52;26.77;;;10.68;;
68858;SDS011;55864;49.238;8.092;2022-09-27T10:27:15;24.33;;;10.10;;
68858;SDS011;55864;49.238;8.092;2022-09-27T10:29:19;45.33;;;16.67;;
68858;SDS011;55864;49.238;8.092;2022-09-27T10:31:22;23.98;;;8.52;;
68858;SDS011;55864;49.238;8.092;2022-09-27T10:33:50;18.00;;;6.93;;
68858;SDS011;55864;49.238;8.092;2022-09-27T10:35:55;23.92;;;9.80;;
68858;SDS011;55864;49.238;8.092;2022-09-27T10:38:20;22.55;;;8.70;;
68858;SDS011;55864;49.238;8.092;2022-09-27T10:40:27;12.23;;;4.40;;
68858;SDS011;55864;49.238;8.092;2022-09-27T10:42:32;9.52;;;4.38;;
68858;SDS011;55864;49.238;8.092;2022-09-27T10:44:34;8.63;;;3.70;;
68858;SDS011;55864;49.238;8.092;2022-09-27T10:46:46;8.55;;;3.08;;
68858;SDS011;55864;49.238;8.092;2022-09-27T10:49:09;5.97;;;2.35;;
68858;SDS011;55864;49.238;8.092;2022-09-27T10:51:24;8.50;;;1.90;;
68858;SDS011;55864;49.238;8.092;2022-09-27T10:53:28;7.53;;;2.10;;
68858;SDS011;55864;49.238;8.092;2022-09-27T10:55:38;4.97;;;1.80;;
68858;SDS011;55864;49.238;8.092;2022-09-27T10:57:46;5.60;;;1.65;;
68858;SDS011;55864;49.238;8.092;2022-09-27T10:59:50;6.88;;;2.85;;
68858;SDS011;55864;49.238;8.092;2022-09-27T11:01:54;5.55;;;1.70;;
68858;SDS011;55864;49.238;8.092;2022-09-27T11:04:15;4.63;;;1.40;;
68858;SDS011;55864;49.238;8.092;2022-09-27T11:06:27;3.28;;;1.20;;
68858;SDS011;55864;49.238;8.092;2022-09-27T11:08:30;2.78;;;1.20;;
68858;SDS011;55864;49.238;8.092;2022-09-27T11:10:36;4.57;;;1.33;;
68858;SDS011;55864;49.238;8.092;2022-09-27T11:12:39;4.95;;;1.20;;
68858;SDS011;55864;49.238;8.092;2022-09-27T11:14:40;3.75;;;1.20;;
68858;SDS011;55864;49.238;8.092;2022-09-27T11:16:44;4.00;;;1.30;;
68858;SDS011;55864;49.238;8.092;2022-09-27T11:18:52;6.03;;;1.38;;
68858;SDS011;55864;49.238;8.092;2022-09-27T11:21:01;3.75;;;1.20;;
68858;SDS011;55864;49.238;8.092;2022-09-27T11:23:20;3.30;;;1.20;;
68858;SDS011;55864;49.238;8.092;2022-09-27T11:25:33;5.10;;;1.25;;
68858;SDS011;55864;49.238;8.092;2022-09-27T11:27:47;3.75;;;1.20;;
68858;SDS011;55864;49.238;8.092;2022-09-27T11:30:03;4.63;;;1.27;;
68858;SDS011;55864;49.238;8.092;2022-09-27T11:32:17;3.67;;;1.05;;
68858;SDS011;55864;49.238;8.092;2022-09-27T11:34:31;3.08;;;1.10;;
68858;SDS011;55864;49.238;8.092;2022-09-27T11:36:54;5.00;;;1.63;;
68858;SDS011;55864;49.238;8.092;2022-09-27T11:39:08;3.63;;;1.20;;
68858;SDS011;55864;49.238;8.092;2022-09-27T11:41:23;3.45;;;1.00;;
68858;SDS011;55864;49.238;8.092;2022-09-27T11:43:42;3.47;;;1.20;;
68858;SDS011;55864;49.238;8.092;2022-09-27T11:45:55;3.80;;;1.10;;
68858;SDS011;55864;49.238;8.092;2022-09-27T11:48:11;3.67;;;1.05;;
68858;SDS011;55864;49.238;8.092;2022-09-27T11:50:32;3.92;;;1.20;;
68858;SDS011;55864;49.238;8.092;2022-09-27T11:52:50;4.00;;;1.20;;
68858;SDS011;55864;49.238;8.092;2022-09-27T11:55:08;4.00;;;1.20;;
68858;SDS011;55864;49.238;8.092;2022-09-27T11:57:20;3.60;;;1.17;;
68858;SDS011;55864;49.238;8.092;2022-09-27T11:59:34;2.88;;;1.20;;
68858;SDS011;55864;49.238;8.092;2022-09-27T12:01:52;2.78;;;1.10;;
68858;SDS011;55864;49.238;8.092;2022-09-27T12:06:43;2.63;;;1.10;;
68858;SDS011;55864;49.238;8.092;2022-09-27T12:08:57;3.75;;;1.27;;
68858;SDS011;55864;49.238;8.092;2022-09-27T12:11:04;5.03;;;1.50;;
68858;SDS011;55864;49.238;8.092;2022-09-27T12:13:14;3.63;;;1.23;;
68858;SDS011;55864;49.238;8.092;2022-09-27T12:15:28;2.78;;;1.10;;
68858;SDS011;55864;49.238;8.092;2022-09-27T12:17:32;3.92;;;1.20;;
68858;SDS011;55864;49.238;8.092;2022-09-27T12:19:37;4.07;;;1.65;;
68858;SDS011;55864;49.238;8.092;2022-09-27T12:23:53;4.10;;;1.20;;
68858;SDS011;55864;49.238;8.092;2022-09-27T12:26:13;3.70;;;1.25;;
68858;SDS011;55864;49.238;8.092;2022-09-27T12:28:19;5.93;;;1.60;;
68858;SDS011;55864;49.238;8.092;2022-09-27T12:30:27;6.70;;;2.00;;
68858;SDS011;55864;49.238;8.092;2022-09-27T12:32:32;4.25;;;1.13;;
68858;SDS011;55864;49.238;8.092;2022-09-27T12:35:03;2.45;;;1.00;;
68858;SDS011;55864;49.238;8.092;2022-09-27T12:37:18;3.85;;;1.05;;
68858;SDS011;55864;49.238;8.092;2022-09-27T12:39:28;5.22;;;1.55;;
68858;SDS011;55864;49.238;8.092;2022-09-27T12:42:00;4.43;;;1.00;;
68858;SDS011;55864;49.238;8.092;2022-09-27T12:44:18;4.68;;;1.35;;
68858;SDS011;55864;49.238;8.092;2022-09-27T12:46:31;2.60;;;1.00;;
68858;SDS011;55864;49.238;8.092;2022-09-27T12:48:43;3.90;;;1.20;;
68858;SDS011;55864;49.238;8.092;2022-09-27T12:50:52;4.18;;;1.20;;
68858;SDS011;55864;49.238;8.092;2022-09-27T12:52:55;4.03;;;1.27;;
68858;SDS011;55864;49.238;8.092;2022-09-27T12:55:04;3.08;;;1.00;;
68858;SDS011;55864;49.238;8.092;2022-09-27T12:57:23;3.35;;;1.20;;
68858;SDS011;55864;49.238;8.092;2022-09-27T12:59:34;2.88;;;1.13;;
68858;SDS011;55864;49.238;8.092;2022-09-27T13:01:58;4.85;;;0.93;;
68858;SDS011;55864;49.238;8.092;2022-09-27T13:04:28;6.20;;;2.15;;